• Join FlightAware (Why Join?)
  • Login
  • US Flag 
05:43PM EDT


 

Airport Tracker/Info


-or-


 

Live Flight TrackerFlight Track Log ✈ N682RW ✈ 08-Mar-2014 ✈ KDTW - KLGA

Flight Track Log - Related Links

Times and Time Zones

All times are in EST time to prevent confusion due to time zone crossing. See the N682RW flight status page for this flight to view local times or setup timezone preferences in your user account.

Time Position Orientation Groundspeed Altitude Reporting Facility
EST Latitude Longitude Course Direction KTS MPH feet Rate Location/Type
04:03PM 42.2297 -83.3339 35° Northeast 162 186 1,300  Level Cleveland Center
04:03PM 42.2456 -83.3192 35° Northeast 183 211 2,200 2,340 Climbing Cleveland Center
04:04PM 42.2844 -83.2739 41° Northeast 254 292 4,200 2,460 Climbing Cleveland Center
04:05PM 42.2981 -83.2417 60° Northeast 252 290 5,200 2,640 Climbing Cleveland Center
04:06PM 42.2967 -83.1450 91° East 284 327 8,000 2,400 Climbing Cleveland Center
04:07PM 42.2850 -83.0239 97° East 317 365 10,200 1,920 Climbing Cleveland Center
04:08PM 42.2722 -82.8864 97° East 364 419 12,000 2,340 Climbing Cleveland Center
04:09PM 42.2525 -82.7078 98° East 397 457 15,100 2,520 Climbing Cleveland Center
04:10PM 42.2361 -82.5514 98° East 421 484 17,200 1,920 Climbing Cleveland Center
04:11PM 42.2189 -82.3881 98° East 437 503 19,100 1,800 Climbing Cleveland Center
04:12PM 42.2083 -82.2169 95° East 456 525 21,000 1,740 Climbing Cleveland Center
04:13PM 42.1969 -82.0414 95° East 470 541 22,700 1,680 Climbing Cleveland Center
04:14PM 42.1556 -81.8667 108° East 491 565 24,500 1,800 Climbing Cleveland Center
04:15PM 42.1122 -81.6575 106° East 494 568 26,500 1,680 Climbing Cleveland Center
04:16PM 42.0689 -81.4769 108° East 497 572 28,000 1,500 Climbing Cleveland Center
04:17PM 42.0264 -81.2944 107° East 501 577 29,600 1,320 Climbing Cleveland Center
04:18PM 41.9828 -81.1119 108° East 503 579 30,800 1,080 Climbing Cleveland Center
04:19PM 41.9375 -80.9286 108° East 506 582 31,900 1,020 Climbing Cleveland Center
04:20PM 41.8950 -80.7481 107° East 506 582 33,000 480 Climbing Cleveland Center
04:21PM 41.8481 -80.5628 109° East 511 588 33,000  Level Cleveland Center
04:22PM 41.8022 -80.3783 108° East 514 592 33,000  Level Cleveland Center
04:23PM 41.7553 -80.1950 109° East 515 593 33,000  Level Cleveland Center
04:24PM 41.7106 -80.0122 108° East 514 592 33,000  Level Cleveland Center
04:25PM 41.6569 -79.7997 109° East 514 592 33,000  Level Cleveland Center
04:26PM 41.6094 -79.6211 110° East 514 592 33,000  Level Cleveland Center
04:27PM 41.5622 -79.4425 109° East 514 592 33,000  Level Cleveland Center
04:28PM 41.5161 -79.2644 109° East 512 589 33,000  Level Cleveland Center
04:29PM 41.4700 -79.0875 109° East 509 586 33,000  Level Cleveland Center
04:30PM 41.4228 -78.9094 109° East 509 586 33,000  Level Cleveland Center
04:31PM 41.3719 -78.7219 110° East 515 593 33,000  Level Cleveland Center
04:32PM 41.3233 -78.5428 110° East 515 593 33,000  Level Cleveland Center
04:33PM 41.2744 -78.3633 110° East 524 603 33,000  Level New York Center
04:34PM 41.2253 -78.1867 110° East 524 603 33,000  Level New York Center
04:35PM 41.1950 -77.9983 102° East 519 597 33,000  Level New York Center
04:36PM 41.1731 -77.8114 99° East 519 597 33,000 -240 Level New York Center
04:37PM 41.1486 -77.6242 100° East 513 590 32,600 -900 Descending New York Center
04:38PM 41.1261 -77.4317 99° East 513 590 31,200 -1,800 Descending New York Center
04:39PM 41.0975 -77.2361 101° East 506 582 29,100 -2,040 Descending New York Center
04:40PM 41.0756 -77.0606 99° East 496 571 27,200 -1,980 Descending New York Center
04:41PM 41.0531 -76.8933 100° East 482 555 25,200 -2,040 Descending New York Center
04:42PM 41.0306 -76.7233 100° East 470 541 23,200 -2,100 Descending New York Center
04:43PM 40.9967 -76.5636 106° East 464 534 21,000 -2,100 Descending New York Center
04:44PM 40.9603 -76.4122 108° East 446 513 19,100 -1,020 Descending New York Center
04:45PM 40.9269 -76.2778 108° East 426 490 19,000 -660 Descending New York Center
04:46PM 40.8889 -76.1125 107° East 421 484 17,800 -1,560 Descending New York Center
04:47PM 40.8606 -75.9953 108° East 421 484 15,900 -2,280 Descending New York Center
04:48PM 40.8181 -75.8219 108° East 421 484 13,300 -1,500 Descending New York Center
04:49PM 40.7844 -75.6850 108° East 408 470 13,000 -180 Descending New York Center
04:50PM 40.7539 -75.5622 108° East 396 456 13,000  Level New York Center
04:51PM 40.7183 -75.4119 107° East 396 456 13,000 -900 Level New York Center
04:52PM 40.6711 -75.2856 116° Southeast 386 444 11,300 -1,500 Descending New York Center
04:53PM 40.6297 -75.1708 115° Southeast 381 438 10,000 -660 Descending New York Center
04:54PM 40.5819 -75.0475 117° Southeast 381 438 10,000  Level New York Center
04:55PM 40.5392 -74.9083 112° Southeast 370 426 10,000  Level New York Center
04:56PM 40.5000 -74.8000 115° Southeast 382 440 10,000 -240 Level New York TRACON
04:57PM 40.4667 -74.6667 108° East 367 422 9,600 -540 Descending New York TRACON
04:58PM 40.4333 -74.5500 111° Southeast 334 384 9,000 -300 Descending New York TRACON
04:59PM 40.4500 -74.4500 78° East 323 372 9,000 -300 Level New York TRACON
05:00PM 40.4833 -74.3333 69° East 320 368 8,500 -960 Descending New York TRACON
05:01PM 40.5167 -74.2167 69° East 301 346 7,100 -1,140 Descending New York TRACON
05:02PM 40.5500 -74.1333 62° Northeast 282 325 6,300 -1,080 Descending New York TRACON
05:03PM 40.6000 -74.0667 45° Northeast 245 282 5,100 -1,500 Descending New York TRACON
05:04PM 40.6333 -74.0000 57° Northeast 225 259 3,400 -1,440 Descending New York TRACON
05:05PM 40.6833 -73.9667 27° Northeast 191 220 2,300 -1,080 Descending New York TRACON
05:06PM 40.7167 -73.9333 37° Northeast 164 189 1,400 -900 Descending New York TRACON
05:07PM 40.7500 -73.9000 37° Northeast 146 168 600 -840 Descending New York TRACON
05:10PM 40.7667 -73.8667 180° South  Level FlightAware Approximate